sensor_id;sensor_type;location;lat;lon;timestamp;pressure;altitude;pressure_sealevel;temperature;humidity
39593;BME280;25286;48.870;9.084;2022-11-04T00:01:22;97030.22;;;10.28;98.40
39593;BME280;25286;48.870;9.084;2022-11-04T00:03:48;97026.66;;;10.32;98.48
39593;BME280;25286;48.870;9.084;2022-11-04T00:06:14;97020.09;;;10.33;98.19
39593;BME280;25286;48.870;9.084;2022-11-04T00:08:39;97026.09;;;10.30;98.31
39593;BME280;25286;48.870;9.084;2022-11-04T00:11:05;97027.22;;;10.39;98.17
39593;BME280;25286;48.870;9.084;2022-11-04T00:13:49;97022.81;;;10.33;98.12
39593;BME280;25286;48.870;9.084;2022-11-04T00:16:15;97023.63;;;10.29;98.76
39593;BME280;25286;48.870;9.084;2022-11-04T00:19:00;97019.19;;;10.23;99.26
39593;BME280;25286;48.870;9.084;2022-11-04T00:21:26;97026.06;;;10.25;99.20
39593;BME280;25286;48.870;9.084;2022-11-04T00:24:11;97033.13;;;10.21;99.22
39593;BME280;25286;48.870;9.084;2022-11-04T00:26:56;97033.13;;;10.21;99.54
39593;BME280;25286;48.870;9.084;2022-11-04T00:29:40;97037.50;;;10.17;99.80
39593;BME280;25286;48.870;9.084;2022-11-04T00:32:06;97040.53;;;10.21;100.00
39593;BME280;25286;48.870;9.084;2022-11-04T00:34:50;97048.22;;;10.18;100.00
39593;BME280;25286;48.870;9.084;2022-11-04T00:37:15;97050.13;;;10.18;100.00
39593;BME280;25286;48.870;9.084;2022-11-04T00:39:41;97052.88;;;10.18;100.00
39593;BME280;25286;48.870;9.084;2022-11-04T00:42:06;97040.03;;;10.24;100.00
39593;BME280;25286;48.870;9.084;2022-11-04T00:44:32;97052.88;;;10.18;100.00
39593;BME280;25286;48.870;9.084;2022-11-04T00:46:58;97049.56;;;10.16;100.00
39593;BME280;25286;48.870;9.084;2022-11-04T00:49:23;97053.25;;;10.27;99.55
39593;BME280;25286;48.870;9.084;2022-11-04T00:51:49;97055.13;;;10.26;99.28
39593;BME280;25286;48.870;9.084;2022-11-04T00:54:15;97048.31;;;9.91;100.00
39593;BME280;25286;48.870;9.084;2022-11-04T00:56:40;97057.09;;;9.93;100.00
39593;BME280;25286;48.870;9.084;2022-11-04T00:59:06;97056.31;;;10.03;100.00
39593;BME280;25286;48.870;9.084;2022-11-04T01:01:32;97066.88;;;9.84;100.00
39593;BME280;25286;48.870;9.084;2022-11-04T01:03:58;97065.59;;;9.92;100.00
39593;BME280;25286;48.870;9.084;2022-11-04T01:06:25;97066.38;;;9.87;100.00
39593;BME280;25286;48.870;9.084;2022-11-04T01:08:59;97068.59;;;9.90;100.00
39593;BME280;25286;48.870;9.084;2022-11-04T01:11:26;97077.63;;;9.91;100.00
39593;BME280;25286;48.870;9.084;2022-11-04T01:13:53;97081.66;;;9.78;100.00
39593;BME280;25286;48.870;9.084;2022-11-04T01:16:18;97077.34;;;9.87;100.00
39593;BME280;25286;48.870;9.084;2022-11-04T01:18:44;97080.81;;;9.78;100.00
39593;BME280;25286;48.870;9.084;2022-11-04T01:21:11;97081.16;;;9.86;100.00
39593;BME280;25286;48.870;9.084;2022-11-04T01:23:38;97081.13;;;9.81;100.00
39593;BME280;25286;48.870;9.084;2022-11-04T01:26:08;97074.72;;;9.71;100.00
39593;BME280;25286;48.870;9.084;2022-11-04T01:28:34;97069.56;;;9.74;100.00
39593;BME280;25286;48.870;9.084;2022-11-04T01:31:14;97058.84;;;9.67;100.00
39593;BME280;25286;48.870;9.084;2022-11-04T01:33:40;97062.09;;;9.64;100.00
39593;BME280;25286;48.870;9.084;2022-11-04T01:36:06;97071.53;;;9.84;100.00
39593;BME280;25286;48.870;9.084;2022-11-04T01:38:32;97075.00;;;9.69;100.00
39593;BME280;25286;48.870;9.084;2022-11-04T01:40:58;97078.25;;;9.66;100.00
39593;BME280;25286;48.870;9.084;2022-11-04T01:46:09;97082.56;;;9.57;100.00
39593;BME280;25286;48.870;9.084;2022-11-04T01:48:36;97082.59;;;9.62;100.00
39593;BME280;25286;48.870;9.084;2022-11-04T01:51:01;97077.97;;;9.62;100.00
39593;BME280;25286;48.870;9.084;2022-11-04T01:53:33;97066.22;;;9.67;100.00
39593;BME280;25286;48.870;9.084;2022-11-04T01:56:02;97066.84;;;9.79;100.00
39593;BME280;25286;48.870;9.084;2022-11-04T01:58:33;97071.53;;;9.84;100.00
39593;BME280;25286;48.870;9.084;2022-11-04T02:01:00;97065.81;;;9.85;100.00
39593;BME280;25286;48.870;9.084;2022-11-04T02:03:33;97069.03;;;9.77;100.00
39593;BME280;25286;48.870;9.084;2022-11-04T02:05:59;97071.78;;;9.77;100.00
39593;BME280;25286;48.870;9.084;2022-11-04T02:08:25;97070.44;;;9.85;100.00
39593;BME280;25286;48.870;9.084;2022-11-04T02:10:56;97079.75;;;9.84;100.00
39593;BME280;25286;48.870;9.084;2022-11-04T02:13:22;97061.38;;;9.79;100.00
39593;BME280;25286;48.870;9.084;2022-11-04T02:18:38;97048.59;;;9.90;100.00
39593;BME280;25286;48.870;9.084;2022-11-04T02:24:13;97059.47;;;9.80;99.82
39593;BME280;25286;48.870;9.084;2022-11-04T02:26:51;97056.72;;;9.80;98.87
39593;BME280;25286;48.870;9.084;2022-11-04T02:29:54;97053.75;;;9.81;98.75
39593;BME280;25286;48.870;9.084;2022-11-04T02:35:10;97070.63;;;9.36;98.06
39593;BME280;25286;48.870;9.084;2022-11-04T02:37:47;97078.97;;;9.51;97.67
39593;BME280;25286;48.870;9.084;2022-11-04T02:43:37;97058.34;;;9.43;97.72
39593;BME280;25286;48.870;9.084;2022-11-04T02:46:15;97048.47;;;9.42;97.22
39593;BME280;25286;48.870;9.084;2022-11-04T02:48:48;97061.53;;;9.30;98.01
39593;BME280;25286;48.870;9.084;2022-11-04T02:51:34;97074.84;;;9.22;97.49
39593;BME280;25286;48.870;9.084;2022-11-04T02:54:06;97079.03;;;9.29;97.00
39593;BME280;25286;48.870;9.084;2022-11-04T02:56:37;97065.09;;;9.31;96.77
39593;BME280;25286;48.870;9.084;2022-11-04T02:59:06;97084.75;;;9.28;96.63
39593;BME280;25286;48.870;9.084;2022-11-04T03:01:37;97078.97;;;9.24;96.25
39593;BME280;25286;48.870;9.084;2022-11-04T03:04:13;97076.97;;;9.14;95.85
39593;BME280;25286;48.870;9.084;2022-11-04T03:06:41;97080.69;;;9.30;95.37
39593;BME280;25286;48.870;9.084;2022-11-04T03:09:10;97083.06;;;9.22;95.26
39593;BME280;25286;48.870;9.084;2022-11-04T03:11:37;97087.47;;;9.23;95.30
39593;BME280;25286;48.870;9.084;2022-11-04T03:14:07;97077.88;;;9.25;95.25
39593;BME280;25286;48.870;9.084;2022-11-04T03:19:16;97065.66;;;9.06;95.55
39593;BME280;25286;48.870;9.084;2022-11-04T03:21:57;97075.22;;;9.03;96.16
39593;BME280;25286;48.870;9.084;2022-11-04T03:24:24;97068.47;;;9.16;95.67
39593;BME280;25286;48.870;9.084;2022-11-04T03:26:51;97079.38;;;9.11;95.81
39593;BME280;25286;48.870;9.084;2022-11-04T03:29:31;97083.59;;;9.19;96.05
39593;BME280;25286;48.870;9.084;2022-11-04T03:32:20;97084.72;;;8.96;96.22
39593;BME280;25286;48.870;9.084;2022-11-04T03:34:47;97081.06;;;9.12;96.04
39593;BME280;25286;48.870;9.084;2022-11-04T03:37:13;97103.91;;;9.01;95.93
39593;BME280;25286;48.870;9.084;2022-11-04T03:39:39;97100.22;;;9.12;94.91
39593;BME280;25286;48.870;9.084;2022-11-04T03:42:07;97096.84;;;9.05;94.65
39593;BME280;25286;48.870;9.084;2022-11-04T03:44:48;97102.09;;;9.11;93.88
39593;BME280;25286;48.870;9.084;2022-11-04T03:47:16;97112.09;;;9.23;93.87
39593;BME280;25286;48.870;9.084;2022-11-04T03:49:46;97108.97;;;9.14;94.71
39593;BME280;25286;48.870;9.084;2022-11-04T03:52:12;97115.69;;;9.28;93.68
39593;BME280;25286;48.870;9.084;2022-11-04T03:54:38;97125.88;;;9.33;93.99
39593;BME280;25286;48.870;9.084;2022-11-04T04:05:25;97127.47;;;9.29;92.72
39593;BME280;25286;48.870;9.084;2022-11-04T04:10:47;97127.28;;;9.35;92.47
39593;BME280;25286;48.870;9.084;2022-11-04T04:13:18;97134.41;;;9.36;92.53
39593;BME280;25286;48.870;9.084;2022-11-04T04:18:25;97122.81;;;9.29;92.93
39593;BME280;25286;48.870;9.084;2022-11-04T04:20:53;97124.91;;;9.17;93.37
39593;BME280;25286;48.870;9.084;2022-11-04T04:23:23;97116.19;;;9.25;93.55
39593;BME280;25286;48.870;9.084;2022-11-04T04:26:09;97118.38;;;9.23;93.87
39593;BME280;25286;48.870;9.084;2022-11-04T04:28:55;97127.59;;;9.12;94.43
39593;BME280;25286;48.870;9.084;2022-11-04T04:31:21;97128.13;;;9.14;95.12
39593;BME280;25286;48.870;9.084;2022-11-04T04:34:07;97115.44;;;9.03;96.35
39593;BME280;25286;48.870;9.084;2022-11-04T04:36:38;97123.84;;;8.96;97.13
39593;BME280;25286;48.870;9.084;2022-11-04T04:39:06;97124.84;;;9.12;96.08
39593;BME280;25286;48.870;9.084;2022-11-04T04:41:52;97136.47;;;9.24;95.33
39593;BME280;25286;48.870;9.084;2022-11-04T04:44:37;97139.47;;;9.23;94.84
39593;BME280;25286;48.870;9.084;2022-11-04T04:47:24;97139.84;;;9.09;95.30
39593;BME280;25286;48.870;9.084;2022-11-04T04:49:52;97135.72;;;9.07;95.27
39593;BME280;25286;48.870;9.084;2022-11-04T04:52:17;97132.75;;;9.08;95.22
39593;BME280;25286;48.870;9.084;2022-11-04T04:54:44;97126.13;;;9.04;95.23
39593;BME280;25286;48.870;9.084;2022-11-04T04:57:09;97122.75;;;8.97;95.25
39593;BME280;25286;48.870;9.084;2022-11-04T04:59:35;97118.88;;;8.93;96.24
39593;BME280;25286;48.870;9.084;2022-11-04T05:02:01;97099.53;;;9.00;96.38
39593;BME280;25286;48.870;9.084;2022-11-04T05:04:26;97081.03;;;8.85;96.93
39593;BME280;25286;48.870;9.084;2022-11-04T05:06:52;97088.97;;;8.86;97.52
39593;BME280;25286;48.870;9.084;2022-11-04T05:09:17;97079.63;;;8.82;97.80
39593;BME280;25286;48.870;9.084;2022-11-04T05:11:43;97071.03;;;8.74;98.95
39593;BME280;25286;48.870;9.084;2022-11-04T05:14:09;97055.22;;;8.54;99.33
39593;BME280;25286;48.870;9.084;2022-11-04T05:16:34;97051.03;;;8.46;100.00
39593;BME280;25286;48.870;9.084;2022-11-04T05:19:00;97050.47;;;8.44;100.00
39593;BME280;25286;48.870;9.084;2022-11-04T05:21:26;97047.97;;;8.43;100.00
39593;BME280;25286;48.870;9.084;2022-11-04T05:23:51;97049.63;;;8.44;100.00
39593;BME280;25286;48.870;9.084;2022-11-04T05:26:17;97051.28;;;8.45;100.00
39593;BME280;25286;48.870;9.084;2022-11-04T05:28:43;97045.59;;;8.29;100.00
39593;BME280;25286;48.870;9.084;2022-11-04T05:31:08;97049.69;;;8.49;100.00
39593;BME280;25286;48.870;9.084;2022-11-04T05:33:34;97056.06;;;8.54;100.00
39593;BME280;25286;48.870;9.084;2022-11-04T05:36:13;97064.06;;;8.61;100.00
39593;BME280;25286;48.870;9.084;2022-11-04T05:38:40;97071.44;;;8.60;100.00
39593;BME280;25286;48.870;9.084;2022-11-04T05:41:07;97072.34;;;8.66;99.45
39593;BME280;25286;48.870;9.084;2022-11-04T05:43:33;97075.06;;;8.66;98.86
39593;BME280;25286;48.870;9.084;2022-11-04T05:46:00;97073.34;;;8.60;98.48
39593;BME280;25286;48.870;9.084;2022-11-04T05:48:26;97076.59;;;8.57;99.20
39593;BME280;25286;48.870;9.084;2022-11-04T05:50:52;97085.03;;;8.55;99.82
39593;BME280;25286;48.870;9.084;2022-11-04T05:53:18;97084.22;;;8.55;99.79
39593;BME280;25286;48.870;9.084;2022-11-04T05:55:43;97090.19;;;8.52;99.84
39593;BME280;25286;48.870;9.084;2022-11-04T05:58:09;97082.44;;;8.44;100.00
39593;BME280;25286;48.870;9.084;2022-11-04T06:00:35;97091.81;;;8.48;100.00
39593;BME280;25286;48.870;9.084;2022-11-04T06:03:01;97084.47;;;8.53;100.00
39593;BME280;25286;48.870;9.084;2022-11-04T06:05:27;97082.44;;;8.44;100.00
39593;BME280;25286;48.870;9.084;2022-11-04T06:07:53;97067.44;;;8.46;100.00
39593;BME280;25286;48.870;9.084;2022-11-04T06:10:19;97065.91;;;8.55;100.00
39593;BME280;25286;48.870;9.084;2022-11-04T06:12:45;97060.69;;;8.54;100.00
39593;BME280;25286;48.870;9.084;2022-11-04T06:15:11;97061.72;;;8.48;100.00
39593;BME280;25286;48.870;9.084;2022-11-04T06:17:36;97059.00;;;8.48;100.00
39593;BME280;25286;48.870;9.084;2022-11-04T06:20:03;97072.13;;;8.51;100.00
39593;BME280;25286;48.870;9.084;2022-11-04T06:22:29;97076.84;;;8.55;100.00
39593;BME280;25286;48.870;9.084;2022-11-04T06:24:55;97083.06;;;8.51;100.00
39593;BME280;25286;48.870;9.084;2022-11-04T06:27:21;97094.13;;;8.61;100.00
39593;BME280;25286;48.870;9.084;2022-11-04T06:29:47;97102.28;;;8.56;100.00
39593;BME280;25286;48.870;9.084;2022-11-04T06:32:15;97106.41;;;8.58;99.89
39593;BME280;25286;48.870;9.084;2022-11-04T06:34:41;97107.69;;;8.51;100.00
39593;BME280;25286;48.870;9.084;2022-11-04T06:37:07;97113.09;;;8.46;100.00
39593;BME280;25286;48.870;9.084;2022-11-04T06:39:34;97106.53;;;8.47;100.00
39593;BME280;25286;48.870;9.084;2022-11-04T06:42:00;97099.25;;;8.35;100.00
39593;BME280;25286;48.870;9.084;2022-11-04T06:44:25;97109.47;;;8.40;100.00
39593;BME280;25286;48.870;9.084;2022-11-04T06:46:51;97110.59;;;8.44;100.00
39593;BME280;25286;48.870;9.084;2022-11-04T06:49:19;97121.28;;;8.46;100.00
39593;BME280;25286;48.870;9.084;2022-11-04T06:51:46;97123.25;;;8.33;100.00
39593;BME280;25286;48.870;9.084;2022-11-04T06:54:12;97116.00;;;8.39;100.00
39593;BME280;25286;48.870;9.084;2022-11-04T06:56:38;97121.94;;;8.36;100.00
39593;BME280;25286;48.870;9.084;2022-11-04T06:59:04;97118.25;;;8.25;100.00
39593;BME280;25286;48.870;9.084;2022-11-04T07:01:34;97117.97;;;8.27;100.00
39593;BME280;25286;48.870;9.084;2022-11-04T07:04:01;97124.19;;;8.22;100.00
39593;BME280;25286;48.870;9.084;2022-11-04T07:06:27;97120.91;;;8.20;100.00
39593;BME280;25286;48.870;9.084;2022-11-04T07:08:56;97120.72;;;8.27;100.00
39593;BME280;25286;48.870;9.084;2022-11-04T07:11:22;97116.06;;;8.27;100.00
39593;BME280;25286;48.870;9.084;2022-11-04T07:13:49;97116.91;;;8.28;100.00
39593;BME280;25286;48.870;9.084;2022-11-04T07:16:15;97117.22;;;8.31;100.00
39593;BME280;25286;48.870;9.084;2022-11-04T07:18:41;97123.72;;;8.25;100.00
39593;BME280;25286;48.870;9.084;2022-11-04T07:21:07;97118.31;;;8.30;100.00
39593;BME280;25286;48.870;9.084;2022-11-04T07:23:33;97110.94;;;8.31;100.00
39593;BME280;25286;48.870;9.084;2022-11-04T07:26:00;97101.53;;;8.38;100.00
39593;BME280;25286;48.870;9.084;2022-11-04T07:28:26;97092.56;;;8.43;100.00
39593;BME280;25286;48.870;9.084;2022-11-04T07:30:54;97088.31;;;8.52;100.00
39593;BME280;25286;48.870;9.084;2022-11-04T07:33:20;97092.47;;;8.60;100.00
39593;BME280;25286;48.870;9.084;2022-11-04T07:35:45;97085.63;;;8.57;100.00
39593;BME280;25286;48.870;9.084;2022-11-04T07:38:11;97091.34;;;8.56;100.00
39593;BME280;25286;48.870;9.084;2022-11-04T07:40:37;97088.88;;;8.54;100.00
39593;BME280;25286;48.870;9.084;2022-11-04T07:43:03;97085.88;;;8.56;100.00
39593;BME280;25286;48.870;9.084;2022-11-04T07:45:29;97084.81;;;8.57;100.00
39593;BME280;25286;48.870;9.084;2022-11-04T07:47:55;97089.81;;;8.65;100.00
39593;BME280;25286;48.870;9.084;2022-11-04T07:50:22;97085.69;;;8.62;100.00
39593;BME280;25286;48.870;9.084;2022-11-04T07:52:48;97090.34;;;8.62;100.00
39593;BME280;25286;48.870;9.084;2022-11-04T07:55:16;97091.53;;;8.71;100.00
39593;BME280;25286;48.870;9.084;2022-11-04T07:57:46;97087.66;;;8.67;100.00
39593;BME280;25286;48.870;9.084;2022-11-04T08:00:13;97090.94;;;8.69;100.00
39593;BME280;25286;48.870;9.084;2022-11-04T08:02:41;97088.28;;;8.74;100.00
39593;BME280;25286;48.870;9.084;2022-11-04T08:05:08;97078.47;;;8.78;100.00
39593;BME280;25286;48.870;9.084;2022-11-04T08:07:34;97071.31;;;8.72;100.00
39593;BME280;25286;48.870;9.084;2022-11-04T08:10:00;97075.31;;;8.86;100.00
39593;BME280;25286;48.870;9.084;2022-11-04T08:12:25;97067.41;;;8.90;100.00
39593;BME280;25286;48.870;9.084;2022-11-04T08:14:52;97072.72;;;9.02;100.00
39593;BME280;25286;48.870;9.084;2022-11-04T08:17:18;97066.66;;;8.95;100.00
39593;BME280;25286;48.870;9.084;2022-11-04T08:19:43;97073.63;;;9.07;100.00
39593;BME280;25286;48.870;9.084;2022-11-04T08:22:09;97072.78;;;9.07;100.00
39593;BME280;25286;48.870;9.084;2022-11-04T08:24:35;97077.41;;;9.06;100.00
39593;BME280;25286;48.870;9.084;2022-11-04T08:27:01;97066.03;;;9.14;100.00
39593;BME280;25286;48.870;9.084;2022-11-04T08:29:29;97069.06;;;9.18;100.00
39593;BME280;25286;48.870;9.084;2022-11-04T08:31:54;97063.09;;;9.21;100.00
39593;BME280;25286;48.870;9.084;2022-11-04T08:34:20;97064.16;;;9.20;99.91
39593;BME280;25286;48.870;9.084;2022-11-04T08:36:46;97075.09;;;9.20;99.27
39593;BME280;25286;48.870;9.084;2022-11-04T08:39:11;97074.03;;;9.21;99.43
39593;BME280;25286;48.870;9.084;2022-11-04T08:41:39;97073.53;;;9.29;99.89
39593;BME280;25286;48.870;9.084;2022-11-04T08:44:06;97073.66;;;9.39;99.89
39593;BME280;25286;48.870;9.084;2022-11-04T08:46:35;97080.31;;;9.49;100.00
39593;BME280;25286;48.870;9.084;2022-11-04T08:49:02;97078.13;;;9.51;99.92
39593;BME280;25286;48.870;9.084;2022-11-04T08:51:29;97086.38;;;9.56;99.52
39593;BME280;25286;48.870;9.084;2022-11-04T08:53:55;97092.50;;;9.63;99.22
39593;BME280;25286;48.870;9.084;2022-11-04T08:56:27;97087.06;;;9.68;98.91
39593;BME280;25286;48.870;9.084;2022-11-04T08:58:53;97085.13;;;9.68;99.02
39593;BME280;25286;48.870;9.084;2022-11-04T09:01:20;97093.88;;;9.65;98.03
39593;BME280;25286;48.870;9.084;2022-11-04T09:03:46;97083.50;;;9.67;98.21
39593;BME280;25286;48.870;9.084;2022-11-04T09:06:18;97100.47;;;9.70;97.62
39593;BME280;25286;48.870;9.084;2022-11-04T09:08:45;97093.13;;;9.75;96.80
39593;BME280;25286;48.870;9.084;2022-11-04T09:11:12;97096.44;;;9.77;95.86
39593;BME280;25286;48.870;9.084;2022-11-04T09:13:38;97096.94;;;9.74;95.43
39593;BME280;25286;48.870;9.084;2022-11-04T09:16:04;97104.63;;;9.72;94.63
39593;BME280;25286;48.870;9.084;2022-11-04T09:18:30;97106.25;;;9.73;94.39
39593;BME280;25286;48.870;9.084;2022-11-04T09:21:00;97102.94;;;9.71;94.52
39593;BME280;25286;48.870;9.084;2022-11-04T09:23:26;97101.59;;;9.74;94.50
39593;BME280;25286;48.870;9.084;2022-11-04T09:25:52;97116.94;;;9.75;94.10
39593;BME280;25286;48.870;9.084;2022-11-04T09:28:18;97121.13;;;9.82;93.49
39593;BME280;25286;48.870;9.084;2022-11-04T09:30:44;97124.44;;;9.84;93.86
39593;BME280;25286;48.870;9.084;2022-11-04T09:33:09;97126.88;;;9.81;93.36
39593;BME280;25286;48.870;9.084;2022-11-04T09:35:35;97125.88;;;9.92;93.00
39593;BME280;25286;48.870;9.084;2022-11-04T09:38:01;97122.06;;;9.98;92.97
39593;BME280;25286;48.870;9.084;2022-11-04T09:40:26;97115.25;;;10.01;93.04
39593;BME280;25286;48.870;9.084;2022-11-04T09:43:27;97118.34;;;10.09;92.76
39593;BME280;25286;48.870;9.084;2022-11-04T09:45:54;97119.94;;;10.05;91.63
39593;BME280;25286;48.870;9.084;2022-11-04T09:48:36;97114.78;;;10.09;90.72
39593;BME280;25286;48.870;9.084;2022-11-04T09:51:04;97112.38;;;10.17;90.59
39593;BME280;25286;48.870;9.084;2022-11-04T09:53:39;97114.63;;;10.26;89.34
39593;BME280;25286;48.870;9.084;2022-11-04T09:56:14;97101.72;;;10.26;88.95
39593;BME280;25286;48.870;9.084;2022-11-04T09:58:41;97110.59;;;10.38;89.25
39593;BME280;25286;48.870;9.084;2022-11-04T10:09:52;97089.81;;;10.53;85.70
39593;BME280;25286;48.870;9.084;2022-11-04T10:12:56;97098.16;;;10.68;85.07
39593;BME280;25286;48.870;9.084;2022-11-04T10:18:36;97091.38;;;10.86;84.63
39593;BME280;25286;48.870;9.084;2022-11-04T10:24:11;97083.16;;;11.01;84.51
39593;BME280;25286;48.870;9.084;2022-11-04T10:26:45;97084.22;;;10.90;83.43
39593;BME280;25286;48.870;9.084;2022-11-04T10:29:35;97083.38;;;10.84;82.52
39593;BME280;25286;48.870;9.084;2022-11-04T10:32:05;97081.75;;;10.93;82.64
39593;BME280;25286;48.870;9.084;2022-11-04T10:34:38;97079.59;;;10.90;82.34
39593;BME280;25286;48.870;9.084;2022-11-04T10:37:09;97083.16;;;11.01;82.59
39593;BME280;25286;48.870;9.084;2022-11-04T10:39:38;97079.84;;;10.89;81.06
39593;BME280;25286;48.870;9.084;2022-11-04T10:42:04;97082.06;;;10.97;81.11
39593;BME280;25286;48.870;9.084;2022-11-04T10:44:32;97078.50;;;10.97;81.14
39593;BME280;25286;48.870;9.084;2022-11-04T10:52:22;97068.88;;;10.94;80.07
39593;BME280;25286;48.870;9.084;2022-11-04T10:54:48;97079.31;;;11.02;79.90
39593;BME280;25286;48.870;9.084;2022-11-04T10:57:23;97080.44;;;11.06;80.66
39593;BME280;25286;48.870;9.084;2022-11-04T10:59:59;97068.38;;;11.12;80.65
39593;BME280;25286;48.870;9.084;2022-11-04T11:02:43;97073.03;;;11.07;80.40
39593;BME280;25286;48.870;9.084;2022-11-04T11:07:43;97082.38;;;11.06;80.73
39593;BME280;25286;48.870;9.084;2022-11-04T11:10:29;97075.97;;;10.90;80.95
39593;BME280;25286;48.870;9.084;2022-11-04T11:12:56;97073.53;;;10.88;80.84
39593;BME280;25286;48.870;9.084;2022-11-04T11:18:32;97065.31;;;10.93;79.96
39593;BME280;25286;48.870;9.084;2022-11-04T11:20:37;97054.63;;;11.07;79.97
39593;BME280;25286;48.870;9.084;2022-11-04T11:23:08;97067.81;;;11.10;79.91
39593;BME280;25286;48.870;9.084;2022-11-04T11:25:51;97060.13;;;11.12;79.84
39593;BME280;25286;48.870;9.084;2022-11-04T11:28:21;97057.66;;;11.16;80.24
39593;BME280;25286;48.870;9.084;2022-11-04T11:36:14;97044.22;;;11.25;79.75
39593;BME280;25286;48.870;9.084;2022-11-04T11:46:54;97031.91;;;11.27;78.82
39593;BME280;25286;48.870;9.084;2022-11-04T11:49:27;97029.69;;;11.24;78.94
39593;BME280;25286;48.870;9.084;2022-11-04T11:51:54;97032.44;;;11.29;78.95
39593;BME280;25286;48.870;9.084;2022-11-04T11:54:32;97032.44;;;11.29;78.22
39593;BME280;25286;48.870;9.084;2022-11-04T11:57:03;97032.44;;;11.34;78.03
39593;BME280;25286;48.870;9.084;2022-11-04T11:59:45;97027.75;;;11.30;78.60
39593;BME280;25286;48.870;9.084;2022-11-04T12:02:39;97035.72;;;11.26;77.74
39593;BME280;25286;48.870;9.084;2022-11-04T12:05:10;97034.91;;;11.31;78.42
39593;BME280;25286;48.870;9.084;2022-11-04T12:08:00;97036.53;;;11.22;78.92
39593;BME280;25286;48.870;9.084;2022-11-04T12:10:37;97035.72;;;11.26;78.80
39593;BME280;25286;48.870;9.084;2022-11-04T12:13:23;97034.66;;;11.32;78.90
39593;BME280;25286;48.870;9.084;2022-11-04T12:21:17;97037.63;;;11.20;81.45
39593;BME280;25286;48.870;9.084;2022-11-04T12:23:49;97030.22;;;11.11;81.27
39593;BME280;25286;48.870;9.084;2022-11-04T12:29:14;97032.41;;;11.14;81.12
39593;BME280;25286;48.870;9.084;2022-11-04T12:40:25;97036.81;;;11.30;80.70
39593;BME280;25286;48.870;9.084;2022-11-04T12:43:16;97041.78;;;11.43;81.15
39593;BME280;25286;48.870;9.084;2022-11-04T12:46:10;97040.13;;;11.32;81.44
39593;BME280;25286;48.870;9.084;2022-11-04T12:56:38;97057.16;;;11.44;82.32
39593;BME280;25286;48.870;9.084;2022-11-04T12:59:14;97053.59;;;11.44;81.61
39593;BME280;25286;48.870;9.084;2022-11-04T13:04:36;97056.06;;;11.35;81.60
39593;BME280;25286;48.870;9.084;2022-11-04T13:07:18;97055.50;;;11.49;81.43
39593;BME280;25286;48.870;9.084;2022-11-04T13:09:51;97066.78;;;11.42;81.00
39593;BME280;25286;48.870;9.084;2022-11-04T13:12:26;97073.09;;;11.42;81.83
39593;BME280;25286;48.870;9.084;2022-11-04T13:15:11;97072.00;;;11.43;81.61
39593;BME280;25286;48.870;9.084;2022-11-04T13:17:39;97082.69;;;11.40;81.51
39593;BME280;25286;48.870;9.084;2022-11-04T13:22:45;97071.97;;;11.28;84.00
39593;BME280;25286;48.870;9.084;2022-11-04T13:25:13;97071.41;;;11.11;82.39
39593;BME280;25286;48.870;9.084;2022-11-04T13:27:42;97079.63;;;11.16;81.13
39593;BME280;25286;48.870;9.084;2022-11-04T13:36:38;97078.81;;;11.05;83.44
39593;BME280;25286;48.870;9.084;2022-11-04T13:39:23;97085.91;;;10.96;86.40
39593;BME280;25286;48.870;9.084;2022-11-04T13:44:40;97095.47;;;10.88;90.87
39593;BME280;25286;48.870;9.084;2022-11-04T13:47:14;97084.22;;;10.90;90.90
39593;BME280;25286;48.870;9.084;2022-11-04T13:49:49;97092.50;;;11.00;91.16
39593;BME280;25286;48.870;9.084;2022-11-04T13:52:15;97094.63;;;10.78;92.55
39593;BME280;25286;48.870;9.084;2022-11-04T13:54:43;97093.81;;;10.82;93.32
39593;BME280;25286;48.870;9.084;2022-11-04T13:57:14;97096.28;;;10.89;93.47
39593;BME280;25286;48.870;9.084;2022-11-04T13:59:41;97104.50;;;10.84;92.39
39593;BME280;25286;48.870;9.084;2022-11-04T14:07:04;97109.59;;;10.55;90.67
39593;BME280;25286;48.870;9.084;2022-11-04T14:09:48;97107.09;;;10.53;89.99
39593;BME280;25286;48.870;9.084;2022-11-04T14:22:34;97123.06;;;10.61;90.16
39593;BME280;25286;48.870;9.084;2022-11-04T14:28:00;97125.94;;;10.39;88.12
39593;BME280;25286;48.870;9.084;2022-11-04T14:30:52;97133.31;;;10.34;87.40
39593;BME280;25286;48.870;9.084;2022-11-04T14:36:29;97144.59;;;10.37;88.92
39593;BME280;25286;48.870;9.084;2022-11-04T14:42:11;97131.06;;;10.26;90.67
39593;BME280;25286;48.870;9.084;2022-11-04T14:44:41;97138.22;;;10.27;90.71
39593;BME280;25286;48.870;9.084;2022-11-04T14:47:25;97139.78;;;10.17;89.63
39593;BME280;25286;48.870;9.084;2022-11-04T14:52:29;97146.59;;;10.15;89.73
39593;BME280;25286;48.870;9.084;2022-11-04T14:55:29;97156.22;;;10.17;89.82
39593;BME280;25286;48.870;9.084;2022-11-04T15:03:36;97165.03;;;9.60;93.15
39593;BME280;25286;48.870;9.084;2022-11-04T15:06:04;97169.00;;;9.75;92.86
39593;BME280;25286;48.870;9.084;2022-11-04T15:13:46;97173.09;;;9.45;94.98
39593;BME280;25286;48.870;9.084;2022-11-04T15:18:43;97174.25;;;9.49;95.51
39593;BME280;25286;48.870;9.084;2022-11-04T15:21:09;97173.94;;;9.73;94.96
39593;BME280;25286;48.870;9.084;2022-11-04T15:23:35;97171.00;;;9.84;94.73
39593;BME280;25286;48.870;9.084;2022-11-04T15:26:04;97169.03;;;9.80;95.71
39593;BME280;25286;48.870;9.084;2022-11-04T15:28:38;97181.28;;;9.40;97.79
39593;BME280;25286;48.870;9.084;2022-11-04T15:33:41;97175.09;;;9.28;100.00
39593;BME280;25286;48.870;9.084;2022-11-04T15:36:17;97174.19;;;9.44;100.00
39593;BME280;25286;48.870;9.084;2022-11-04T15:38:52;97182.66;;;9.42;100.00
39593;BME280;25286;48.870;9.084;2022-11-04T15:41:21;97179.41;;;9.46;100.00
39593;BME280;25286;48.870;9.084;2022-11-04T15:44:12;97184.31;;;9.43;100.00
39593;BME280;25286;48.870;9.084;2022-11-04T15:46:39;97184.72;;;9.30;100.00
39593;BME280;25286;48.870;9.084;2022-11-04T15:49:05;97184.34;;;9.22;100.00
39593;BME280;25286;48.870;9.084;2022-11-04T15:51:38;97191.22;;;9.24;100.00